Flugplatz Heppenheim

Für EDEP sind keine METAR/TAF Berichte vorhanden.
Es werden die Flugwettermeldungen vom Flugplatz Mannheim-City in 18 km Entfernung angezeigt.

Bericht für EDFM

vom 02.07. um 15:50 UTC

Wind 10 kt aus 250°

Sichtweite 10 km oder mehr

gute Sicht, keine Wolken < 5000 ft, keine CB, keine Wettererscheinungen (CAVOK)

Temperatur 25.0°C

Taupunkt 10.0°C

Luftfeuchtigkeit 39%

Luftdruck 1012 hPa

EDFM 021550Z 25010KT 210V280 CAVOK 25/10 Q1012

Prognose für EDFM

vom 02.07. um 14:00 UTC

Zwischen 15:00 UTC und 19:00 UTC

Wind 12 kt aus 250°

Sichtweite 10 km oder mehr

keine signifikanten Wettererscheinungen

keine Wolken


Zwischen 15:00 UTC und 18:00 UTC zeitweise mit einer Wahrscheinlichkeit von 40%

Wind 15 kt aus 280° in Böen 25 kt


Zwischen 19:00 und 21:00 UTC übergehend zu

Wind 5 kt aus 270°

Sichtweite 10 km oder mehr

keine signifikanten Wettererscheinungen

keine Wolken

TAF EDFM 021400Z 0215/0221 25012KT CAVOK PROB40 TEMPO 0215/0218 28015G25KT BECMG 0219/0221 27005KT
Impressum